Time;durP1;ratioP1;P1;durP2;ratioP2;P2;SDS_P1;SDS_P2;PMS_P1;PMS_P2;Temp;Humidity;BMP_temperature;BMP_pressure;BME280_temperature;BME280_humidity;BME280_pressure;Samples;Min_cycle;Max_cycle;Signal;HPM_P1;HPM_P2
2023/06/02 00:00:20;;;;;;;6.63;4.97;;;;;;;18.90;48.29;156220.53;5010027;28;20506;-81
2023/06/02 00:02:53;;;;;;;5.30;4.60;;;;;;;18.88;48.33;156215.28;5024882;28;20444;-81
2023/06/02 00:05:20;;;;;;;5.20;4.53;;;;;;;18.83;48.57;156203.56;4988837;28;20805;-81
2023/06/02 00:07:48;;;;;;;5.57;4.93;;;;;;;18.77;48.63;156186.66;4990361;28;20446;-81
2023/06/02 00:10:15;;;;;;;4.60;4.10;;;;;;;18.74;48.76;156180.09;4985385;28;20549;-81
2023/06/02 00:12:42;;;;;;;5.10;4.60;;;;;;;18.73;48.78;156176.22;4970805;28;20878;-82
2023/06/02 00:15:10;;;;;;;5.40;4.90;;;;;;;18.64;48.78;156154.06;4986909;28;20493;-81
2023/06/02 00:17:37;;;;;;;5.70;4.13;;;;;;;18.63;48.62;156151.47;4989100;28;20473;-81
2023/06/02 00:20:05;;;;;;;5.20;4.47;;;;;;;18.45;49.19;156104.53;4990616;28;20449;-81
2023/06/02 00:22:32;;;;;;;4.23;3.83;;;;;;;18.44;49.21;156100.59;4986108;28;20455;-81
2023/06/02 00:24:58;;;;;;;5.73;4.33;;;;;;;18.41;48.97;156092.78;4971384;28;20442;-79
2023/06/02 00:27:25;;;;;;;4.80;4.00;;;;;;;18.39;49.41;156087.59;4970979;28;20454;-81
2023/06/02 00:29:53;;;;;;;6.63;4.37;;;;;;;18.31;49.23;156068.06;5002771;28;20965;-82
2023/06/02 00:32:19;;;;;;;5.07;4.10;;;;;;;18.25;49.31;156052.41;4988216;28;20469;-80
2023/06/02 00:34:46;;;;;;;6.17;4.30;;;;;;;18.25;49.15;156053.72;4988142;28;20449;-81
2023/06/02 00:37:12;;;;;;;5.40;4.23;;;;;;;18.20;49.32;156040.69;4987294;28;20454;-81
2023/06/02 00:39:39;;;;;;;4.80;4.07;;;;;;;18.12;49.44;156018.56;4970432;28;20953;-81
2023/06/02 00:42:07;;;;;;;5.97;4.70;;;;;;;18.03;49.64;155996.41;5017622;28;20512;-81
2023/06/02 00:44:34;;;;;;;4.20;3.80;;;;;;;17.97;49.77;155980.81;4971229;28;20478;-81
2023/06/02 00:47:02;;;;;;;4.83;4.33;;;;;;;18.00;50.01;155988.59;4990070;28;20454;-81
2023/06/02 00:49:28;;;;;;;4.90;4.33;;;;;;;17.97;49.73;155979.50;5020743;28;20445;-81
2023/06/02 00:51:55;;;;;;;5.20;4.70;;;;;;;17.91;49.75;155965.16;5004722;28;20503;-81
2023/06/02 00:54:21;;;;;;;5.37;4.20;;;;;;;17.83;50.13;155944.34;5002128;28;20458;-81
2023/06/02 00:56:51;;;;;;;5.33;4.37;;;;;;;17.76;49.88;155924.81;4985138;28;20514;-80
2023/06/02 00:59:17;;;;;;;5.13;3.77;;;;;;;17.75;49.97;155922.19;4970272;28;20470;-80
2023/06/02 01:01:45;;;;;;;4.63;3.77;;;;;;;17.72;50.39;155915.69;4984799;28;20505;-81
2023/06/02 01:04:12;;;;;;;4.70;4.30;;;;;;;17.71;50.13;155913.13;5000783;28;20427;-81
2023/06/02 01:06:40;;;;;;;5.93;4.57;;;;;;;17.63;50.35;155892.28;4968358;28;20463;-80
2023/06/02 01:09:10;;;;;;;5.73;4.37;;;;;;;17.61;50.34;155887.03;4970942;28;20537;-80
2023/06/02 01:11:36;;;;;;;6.80;4.10;;;;;;;17.56;50.13;155874.03;4987890;28;20826;-80
2023/06/02 01:14:03;;;;;;;5.70;4.17;;;;;;;17.54;50.21;155870.16;4971225;28;20452;-81
2023/06/02 01:16:30;;;;;;;6.80;4.27;;;;;;;17.48;50.29;155853.16;4960410;28;20967;-81
2023/06/02 01:18:59;;;;;;;5.80;4.00;;;;;;;17.44;50.59;155842.75;5008975;28;20480;-81
2023/06/02 01:21:34;;;;;;;6.83;3.77;;;;;;;17.38;50.57;155828.44;5009361;28;20440;-81
2023/06/02 01:24:02;;;;;;;4.40;3.87;;;;;;;17.33;50.73;155814.13;4991074;28;20523;-80
2023/06/02 01:26:33;;;;;;;6.47;4.10;;;;;;;17.27;50.64;155798.47;4990987;28;20531;-81
2023/06/02 01:29:01;;;;;;;5.23;3.80;;;;;;;17.22;50.86;155785.47;4994494;28;20433;-80
2023/06/02 01:31:30;;;;;;;4.40;3.97;;;;;;;17.18;51.32;155776.41;5008574;28;20813;-80
2023/06/02 01:34:02;;;;;;;5.30;4.20;;;;;;;17.20;51.31;155780.28;5023422;28;20482;-81
2023/06/02 01:36:31;;;;;;;8.60;4.23;;;;;;;17.20;51.27;155780.28;5007197;28;20511;-81
2023/06/02 01:38:58;;;;;;;4.30;3.80;;;;;;;17.17;51.24;155772.47;4990865;28;20468;-81
2023/06/02 01:41:27;;;;;;;4.90;4.00;;;;;;;17.10;51.70;155754.25;5023099;28;20452;-80
2023/06/02 01:43:54;;;;;;;6.13;4.67;;;;;;;17.03;51.81;155737.31;5010475;28;20445;-81
2023/06/02 01:46:22;;;;;;;6.80;4.50;;;;;;;17.03;51.74;155738.63;4987802;28;20480;-80
2023/06/02 01:48:53;;;;;;;5.17;3.70;;;;;;;16.96;52.24;155720.44;5012875;28;20429;-81
2023/06/02 01:51:19;;;;;;;6.30;5.20;;;;;;;16.92;52.47;155710.00;5011087;28;20495;-80
2023/06/02 01:53:46;;;;;;;5.70;4.47;;;;;;;16.88;52.92;155699.63;4994422;28;20979;-80
2023/06/02 01:56:13;;;;;;;7.80;4.63;;;;;;;16.86;52.67;155694.41;5011101;28;20448;-80
2023/06/02 01:58:41;;;;;;;5.73;4.40;;;;;;;16.79;53.10;155676.19;5010849;28;21174;-80
2023/06/02 02:01:08;;;;;;;6.47;4.70;;;;;;;16.74;53.14;155661.88;5010850;28;20547;-80
2023/06/02 02:03:37;;;;;;;5.03;3.63;;;;;;;16.71;53.85;155654.03;5000387;28;20525;-80
2023/06/02 02:06:03;;;;;;;5.90;4.30;;;;;;;16.72;53.77;155656.66;4991239;28;20438;-81
2023/06/02 02:08:30;;;;;;;5.63;4.50;;;;;;;16.64;54.03;155637.16;4991328;28;20521;-80
2023/06/02 02:10:56;;;;;;;6.20;4.40;;;;;;;16.60;54.39;155626.72;4991388;28;20809;-80
2023/06/02 02:13:23;;;;;;;5.30;4.00;;;;;;;16.58;54.54;155620.22;5009667;28;20449;-80
2023/06/02 02:15:51;;;;;;;5.20;4.20;;;;;;;16.58;54.48;155620.22;4988664;28;21005;-80
2023/06/02 02:18:20;;;;;;;5.50;4.40;;;;;;;16.56;54.86;155616.34;5006425;28;20480;-80
2023/06/02 02:20:46;;;;;;;6.03;4.50;;;;;;;16.55;54.96;155613.72;4996723;28;20484;-80
2023/06/02 02:23:13;;;;;;;8.07;5.00;;;;;;;16.48;55.19;155595.47;4990870;28;20968;-80
2023/06/02 02:25:40;;;;;;;5.23;4.50;;;;;;;16.41;55.72;155577.28;4974258;28;20838;-80
2023/06/02 02:28:06;;;;;;;4.43;4.03;;;;;;;16.41;55.83;155577.28;4994699;28;20449;-82
2023/06/02 02:30:33;;;;;;;5.47;4.70;;;;;;;16.37;56.17;155566.84;5010130;28;20456;-82
2023/06/02 02:33:02;;;;;;;5.70;4.50;;;;;;;16.26;56.39;155538.25;4977801;28;20448;-82
2023/06/02 02:35:29;;;;;;;6.03;4.27;;;;;;;16.20;57.09;155523.94;5009963;28;20808;-82
2023/06/02 02:37:57;;;;;;;5.87;4.33;;;;;;;16.13;57.04;155504.44;5009352;28;20480;-82
2023/06/02 02:40:26;;;;;;;4.93;4.43;;;;;;;16.10;57.86;155496.63;5009647;28;20448;-82
2023/06/02 02:42:52;;;;;;;5.50;4.17;;;;;;;16.05;57.98;155483.63;5029497;28;20961;-82
2023/06/02 02:45:20;;;;;;;7.33;4.60;;;;;;;16.03;58.33;155478.44;5013199;28;20440;-82
2023/06/02 02:47:47;;;;;;;5.27;4.40;;;;;;;15.97;58.14;155464.13;5013549;28;20574;-82
2023/06/02 02:50:15;;;;;;;7.30;5.10;;;;;;;16.03;58.89;155478.44;5010944;28;20803;-82
2023/06/02 02:52:44;;;;;;;6.83;5.50;;;;;;;15.94;58.87;155456.31;5009270;28;20568;-82
2023/06/02 02:55:12;;;;;;;6.20;5.20;;;;;;;15.91;59.35;155447.25;4993071;28;20457;-82
2023/06/02 02:57:38;;;;;;;7.33;5.57;;;;;;;15.93;59.36;155452.44;5010357;28;20559;-83
2023/06/02 03:00:08;;;;;;;6.90;4.70;;;;;;;15.79;59.84;155418.63;5010104;28;20539;-82
2023/06/02 03:02:34;;;;;;;5.53;4.87;;;;;;;15.78;60.05;155416.03;5011684;28;20459;-82
2023/06/02 03:05:02;;;;;;;8.53;4.50;;;;;;;15.75;60.23;155406.97;4993646;28;20488;-82
2023/06/02 03:07:30;;;;;;;4.60;3.77;;;;;;;15.71;60.21;155396.53;4977718;28;20456;-82
2023/06/02 03:09:56;;;;;;;5.90;4.90;;;;;;;15.65;60.69;155380.91;5009444;28;20875;-82
2023/06/02 03:12:23;;;;;;;7.40;4.60;;;;;;;15.55;61.32;155354.94;4993760;28;20834;-82
2023/06/02 03:14:50;;;;;;;6.30;4.20;;;;;;;15.49;61.94;155339.38;4993829;28;20483;-82
2023/06/02 03:17:17;;;;;;;7.00;4.50;;;;;;;15.48;61.92;155338.06;5016950;28;20516;-82
2023/06/02 03:19:44;;;;;;;5.87;4.70;;;;;;;15.50;62.07;155343.25;4996841;28;20483;-82
2023/06/02 03:22:11;;;;;;;8.03;5.40;;;;;;;15.46;62.48;155332.81;5013091;28;20451;-82
2023/06/02 03:24:41;;;;;;;5.70;4.80;;;;;;;15.44;63.02;155327.59;4997058;28;20442;-80
2023/06/02 03:27:13;;;;;;;6.73;4.97;;;;;;;15.42;63.76;155322.41;5031046;28;20432;-80
2023/06/02 03:29:40;;;;;;;7.00;4.60;;;;;;;15.28;64.31;155286.00;4990946;28;20967;-80
2023/06/02 03:32:10;;;;;;;5.93;4.90;;;;;;;15.17;65.02;155258.72;5023260;28;20458;-79
2023/06/02 03:34:36;;;;;;;6.13;4.43;;;;;;;15.17;65.41;155257.41;4974653;28;20478;-79
2023/06/02 03:37:04;;;;;;;6.00;4.80;;;;;;;15.06;65.79;155228.84;5006472;28;20797;-80
2023/06/02 03:39:31;;;;;;;6.43;5.10;;;;;;;15.07;66.41;155231.41;4973426;28;20475;-80
2023/06/02 03:41:59;;;;;;;6.17;4.97;;;;;;;15.00;66.62;155214.56;5008221;28;20479;-81
2023/06/02 03:44:26;;;;;;;6.87;5.20;;;;;;;14.93;67.33;155195.06;5007025;28;20451;-81
2023/06/02 03:46:52;;;;;;;6.30;5.20;;;;;;;14.85;68.00;155175.53;4973181;28;20461;-81
2023/06/02 03:49:19;;;;;;;5.40;4.33;;;;;;;14.79;68.12;155160.00;4984361;28;20442;-80
2023/06/02 03:51:47;;;;;;;7.47;4.90;;;;;;;14.79;68.47;155158.69;4976334;28;20450;-80
2023/06/02 03:54:13;;;;;;;8.37;5.60;;;;;;;14.75;68.89;155148.25;5008461;28;20432;-80
2023/06/02 03:56:40;;;;;;;11.70;5.50;;;;;;;14.74;69.39;155145.69;5009912;28;20988;-80
2023/06/02 03:59:08;;;;;;;9.27;5.83;;;;;;;14.74;69.59;155145.69;5009874;28;20983;-81
2023/06/02 04:01:36;;;;;;;7.20;5.17;;;;;;;14.70;69.96;155135.28;4991090;28;20876;-80
2023/06/02 04:04:04;;;;;;;8.90;5.47;;;;;;;14.74;70.10;155145.69;4991879;28;20442;-81
2023/06/02 04:06:32;;;;;;;8.17;5.80;;;;;;;14.67;70.46;155128.78;5024450;28;20953;-81
2023/06/02 04:08:59;;;;;;;8.23;5.20;;;;;;;14.67;70.40;155127.53;4975773;28;20425;-81
2023/06/02 04:11:27;;;;;;;6.27;4.73;;;;;;;14.65;70.89;155123.59;4991978;28;20543;-81
2023/06/02 04:13:54;;;;;;;6.10;4.83;;;;;;;14.74;70.94;155145.69;4983523;28;20476;-81
2023/06/02 04:16:23;;;;;;;6.60;4.90;;;;;;;14.84;70.77;155171.66;5024772;28;20460;-81
2023/06/02 04:18:51;;;;;;;7.60;6.13;;;;;;;14.85;70.93;155174.28;5002786;28;20534;-81
2023/06/02 04:21:17;;;;;;;6.50;5.10;;;;;;;14.83;71.26;155169.06;4990706;28;20481;-81
2023/06/02 04:23:45;;;;;;;6.70;5.37;;;;;;;14.87;71.16;155179.47;4990200;28;20539;-82
2023/06/02 04:26:11;;;;;;;8.20;5.90;;;;;;;14.90;71.15;155187.28;4990994;28;20455;-81
2023/06/02 04:28:40;;;;;;;7.53;5.50;;;;;;;15.11;70.80;155243.16;4986270;28;20443;-82
2023/06/02 04:31:09;;;;;;;6.70;5.40;;;;;;;15.19;70.45;155263.94;4992376;28;20544;-82
2023/06/02 04:33:40;;;;;;;5.90;4.70;;;;;;;15.40;69.86;155315.91;4975935;28;20445;-83
2023/06/02 04:36:10;;;;;;;7.30;5.00;;;;;;;15.61;69.16;155371.84;4975864;28;20462;-82
2023/06/02 04:38:37;;;;;;;6.73;5.70;;;;;;;15.72;68.94;155399.16;4992043;28;20472;-82
2023/06/02 04:41:06;;;;;;;6.63;5.60;;;;;;;15.81;68.20;155423.81;5008707;28;20811;-82
2023/06/02 04:43:34;;;;;;;8.10;5.00;;;;;;;15.91;67.74;155447.25;4993959;28;20967;-82
2023/06/02 04:46:01;;;;;;;7.37;6.00;;;;;;;15.97;67.88;155462.81;4995139;28;20985;-82
2023/06/02 04:48:28;;;;;;;6.83;5.30;;;;;;;15.83;68.36;155429.03;4990533;28;20446;-82
2023/06/02 04:50:56;;;;;;;6.97;5.30;;;;;;;15.78;68.68;155416.03;5008329;28;20448;-82
2023/06/02 04:53:23;;;;;;;6.80;5.80;;;;;;;15.94;68.23;155456.31;5013916;28;20447;-82
2023/06/02 04:55:50;;;;;;;8.17;5.90;;;;;;;16.08;67.89;155491.44;4988465;28;20457;-82
2023/06/02 04:58:17;;;;;;;8.03;6.17;;;;;;;16.26;67.27;155538.25;5004526;28;21091;-82
2023/06/02 05:00:44;;;;;;;7.40;5.20;;;;;;;16.34;66.89;155559.06;4988680;28;20449;-82
2023/06/02 05:03:10;;;;;;;8.00;5.37;;;;;;;16.29;67.00;155546.06;4987948;28;20451;-82
2023/06/02 05:05:37;;;;;;;8.13;5.57;;;;;;;16.16;67.75;155512.25;4987922;28;20449;-80
2023/06/02 05:08:06;;;;;;;9.97;7.10;;;;;;;16.15;68.01;155509.66;4987191;28;20816;-82
2023/06/02 05:10:33;;;;;;;8.60;6.50;;;;;;;16.27;67.85;155540.84;4988275;28;20481;-82
2023/06/02 05:12:59;;;;;;;7.77;5.30;;;;;;;16.48;67.37;155595.47;4988839;28;20855;-83
2023/06/02 05:15:27;;;;;;;8.03;6.50;;;;;;;16.59;67.01;155622.84;4988174;28;20841;-82
2023/06/02 05:17:55;;;;;;;7.87;6.27;;;;;;;16.52;66.99;155605.88;5009215;28;20442;-83
2023/06/02 05:20:23;;;;;;;9.53;6.63;;;;;;;16.44;67.56;155585.09;5023817;28;20559;-82
2023/06/02 05:22:50;;;;;;;8.00;5.90;;;;;;;16.45;67.76;155587.66;4974813;28;20441;-82
2023/06/02 05:25:18;;;;;;;9.40;6.23;;;;;;;16.40;67.91;155574.66;5022172;28;20447;-82
2023/06/02 05:27:45;;;;;;;7.67;5.93;;;;;;;16.33;68.30;155556.47;4980538;28;20465;-82
2023/06/02 05:30:12;;;;;;;8.17;5.93;;;;;;;16.31;68.67;155552.56;4991750;28;20542;-82
2023/06/02 05:32:41;;;;;;;9.23;7.00;;;;;;;16.44;67.94;155585.09;4974849;28;20460;-82
2023/06/02 05:35:09;;;;;;;9.73;5.53;;;;;;;16.60;68.11;155626.72;5007559;28;20428;-82
2023/06/02 05:37:36;;;;;;;6.03;5.43;;;;;;;16.81;67.29;155680.09;5008765;28;20811;-82
2023/06/02 05:40:03;;;;;;;6.97;5.70;;;;;;;17.15;66.27;155768.59;4975422;28;20518;-82
2023/06/02 05:42:32;;;;;;;8.00;6.47;;;;;;;17.34;65.36;155816.72;4990784;28;20991;-82
2023/06/02 05:45:00;;;;;;;7.07;6.23;;;;;;;16.97;66.17;155723.00;5008731;28;20456;-82
2023/06/02 05:47:30;;;;;;;9.00;6.77;;;;;;;16.83;67.17;155685.31;5004698;28;20457;-82
2023/06/02 05:49:56;;;;;;;9.63;6.70;;;;;;;17.15;66.21;155767.28;5010044;28;20437;-82
2023/06/02 05:52:23;;;;;;;6.80;5.27;;;;;;;17.55;64.96;155871.47;5018054;28;20548;-82
2023/06/02 05:54:50;;;;;;;7.57;5.70;;;;;;;17.65;64.49;155897.47;5012101;28;20472;-82
2023/06/02 05:57:18;;;;;;;9.10;6.60;;;;;;;17.45;64.86;155845.34;4990571;28;20506;-82
2023/06/02 05:59:46;;;;;;;9.40;6.60;;;;;;;17.26;65.51;155795.91;5008563;28;20504;-82
2023/06/02 06:02:13;;;;;;;7.97;6.53;;;;;;;17.11;66.58;155756.84;4990183;28;20467;-82
2023/06/02 06:04:40;;;;;;;10.80;6.40;;;;;;;17.37;65.60;155824.50;4990505;28;20559;-82
2023/06/02 06:07:07;;;;;;;8.10;5.97;;;;;;;17.63;65.01;155892.28;4990872;28;20659;-82
2023/06/02 06:09:34;;;;;;;6.83;5.73;;;;;;;17.91;64.60;155965.16;5008223;28;20481;-82
2023/06/02 06:12:03;;;;;;;8.10;6.70;;;;;;;18.27;63.14;156058.91;4990777;28;20453;-82
2023/06/02 06:14:30;;;;;;;8.60;7.70;;;;;;;18.43;62.26;156097.97;5014951;28;20446;-83
2023/06/02 06:16:58;;;;;;;7.73;6.30;;;;;;;18.27;62.85;156057.59;4987893;28;20446;-83
2023/06/02 06:19:25;;;;;;;8.67;6.63;;;;;;;18.44;62.19;156101.91;4972300;28;20478;-82
2023/06/02 06:21:51;;;;;;;10.20;6.33;;;;;;;18.37;62.58;156083.69;4987603;28;20873;-83
2023/06/02 06:24:18;;;;;;;8.23;7.33;;;;;;;18.43;62.84;156097.97;4987957;28;20600;-83
2023/06/02 06:26:44;;;;;;;9.00;6.27;;;;;;;18.61;62.24;156144.97;4991922;28;20945;-82
2023/06/02 06:29:11;;;;;;;9.10;6.90;;;;;;;18.81;61.08;156197.06;5016811;28;20437;-83
2023/06/02 06:31:39;;;;;;;8.77;7.10;;;;;;;18.93;60.58;156227.03;5010651;28;20476;-82
2023/06/02 06:34:10;;;;;;;7.47;5.87;;;;;;;19.01;60.66;156249.16;5010208;28;20963;-83
2023/06/02 06:36:37;;;;;;;7.47;6.67;;;;;;;19.07;60.29;156264.81;4992787;28;20457;-82
2023/06/02 06:39:04;;;;;;;9.20;7.10;;;;;;;19.06;60.67;156262.19;5007460;28;20488;-82
2023/06/02 06:41:34;;;;;;;8.90;6.77;;;;;;;19.42;59.66;156354.78;4974563;28;20454;-82
2023/06/02 06:44:02;;;;;;;10.77;6.60;;;;;;;19.49;58.86;156371.72;4974841;28;20458;-83
2023/06/02 06:46:28;;;;;;;9.60;7.10;;;;;;;19.21;60.19;156301.31;4990094;28;20492;-83
2023/06/02 06:48:55;;;;;;;10.30;6.70;;;;;;;18.80;61.00;156195.75;4994058;28;20473;-82
2023/06/02 06:51:23;;;;;;;8.07;6.70;;;;;;;18.64;62.26;156152.75;5024987;28;20588;-82
2023/06/02 06:53:50;;;;;;;9.17;6.90;;;;;;;18.76;62.12;156184.03;4992194;28;20508;-82
2023/06/02 06:56:17;;;;;;;7.53;6.70;;;;;;;19.28;60.81;156318.22;4991224;28;20442;-81
2023/06/02 06:58:43;;;;;;;9.00;6.70;;;;;;;19.49;59.87;156373.03;4990488;28;20500;-82
2023/06/02 07:01:12;;;;;;;10.20;6.70;;;;;;;19.65;59.42;156414.75;4990954;28;20992;-81
2023/06/02 07:03:38;;;;;;;8.00;6.90;;;;;;;19.52;59.29;156379.53;4990098;28;20907;-82
2023/06/02 07:06:05;;;;;;;9.10;7.27;;;;;;;19.26;59.67;156314.34;4991826;28;20446;-82
2023/06/02 07:08:33;;;;;;;9.03;7.70;;;;;;;19.06;60.81;156262.19;5009750;28;20955;-81
2023/06/02 07:11:00;;;;;;;10.37;7.00;;;;;;;18.90;61.79;156220.53;5006717;28;20477;-81
2023/06/02 07:13:27;;;;;;;7.83;6.53;;;;;;;19.23;60.69;156305.19;4991404;28;21397;-81
2023/06/02 07:15:54;;;;;;;7.37;6.47;;;;;;;19.23;60.00;156305.19;5006273;28;20821;-81
2023/06/02 07:18:20;;;;;;;10.50;7.63;;;;;;;18.94;61.26;156230.94;4991692;28;20448;-81
2023/06/02 07:20:47;;;;;;;7.87;7.07;;;;;;;18.97;60.68;156238.75;4990217;28;20492;-81
2023/06/02 07:23:13;;;;;;;9.23;6.43;;;;;;;18.97;61.73;156238.75;4990448;28;20805;-81
2023/06/02 07:25:41;;;;;;;8.40;7.00;;;;;;;19.04;61.09;156256.97;4986883;28;20957;-82
2023/06/02 07:28:08;;;;;;;7.83;6.97;;;;;;;19.20;60.58;156298.69;4991101;28;20513;-81
2023/06/02 07:30:35;;;;;;;8.63;6.60;;;;;;;19.53;60.04;156382.16;5022683;28;20426;-81
2023/06/02 07:33:02;;;;;;;9.07;6.37;;;;;;;19.95;58.56;156491.69;4991465;28;20820;-81
2023/06/02 07:35:28;;;;;;;8.10;7.10;;;;;;;19.48;59.66;156369.13;5022257;28;20422;-81
2023/06/02 07:37:55;;;;;;;8.50;7.20;;;;;;;19.74;58.93;156438.22;5006692;28;20792;-81
2023/06/02 07:40:21;;;;;;;7.83;6.43;;;;;;;20.15;57.34;156542.56;5005836;28;20810;-82
2023/06/02 07:42:49;;;;;;;8.70;7.00;;;;;;;19.83;58.13;156461.66;4990840;28;20818;-82
2023/06/02 07:45:16;;;;;;;10.70;7.27;;;;;;;19.77;58.27;156446.06;5005112;28;20969;-82
2023/06/02 07:47:42;;;;;;;6.40;5.80;;;;;;;19.94;58.26;156490.38;4990928;28;20453;-82
2023/06/02 07:50:10;;;;;;;7.13;6.17;;;;;;;20.42;57.55;156614.31;5005153;28;20438;-82
2023/06/02 07:52:37;;;;;;;8.63;7.07;;;;;;;20.78;55.38;156705.66;5005267;28;20995;-82
2023/06/02 07:55:04;;;;;;;8.43;7.23;;;;;;;20.72;55.01;156689.97;4990366;28;20469;-82
2023/06/02 07:57:31;;;;;;;9.60;7.27;;;;;;;20.54;55.98;156645.59;4989149;28;20865;-82
2023/06/02 07:59:59;;;;;;;7.70;6.90;;;;;;;20.53;56.16;156641.72;5004277;28;20708;-82
2023/06/02 08:02:25;;;;;;;7.80;6.90;;;;;;;20.56;55.70;156649.53;5005031;28;20449;-82
2023/06/02 08:04:52;;;;;;;9.03;7.70;;;;;;;20.39;56.42;156606.47;5004569;28;20492;-82
2023/06/02 08:07:18;;;;;;;10.13;6.90;;;;;;;20.38;56.08;156602.59;5005123;28;20843;-82
2023/06/02 08:09:45;;;;;;;8.57;6.77;;;;;;;20.72;55.27;156689.97;4996430;28;20469;-82
2023/06/02 08:12:11;;;;;;;8.13;7.30;;;;;;;20.84;54.21;156721.28;5024801;28;20445;-82
2023/06/02 08:14:38;;;;;;;9.23;7.03;;;;;;;21.07;54.37;156782.69;5024411;28;20982;-83
2023/06/02 08:17:06;;;;;;;7.40;6.57;;;;;;;20.93;54.38;156744.78;5001748;28;20508;-82
2023/06/02 08:19:33;;;;;;;12.07;7.20;;;;;;;20.29;56.04;156580.41;4989848;28;20446;-82
2023/06/02 08:22:00;;;;;;;9.50;7.20;;;;;;;20.07;57.19;156522.94;5002377;28;20465;-82
2023/06/02 08:24:28;;;;;;;9.00;6.80;;;;;;;20.47;55.87;156627.34;5009582;28;20451;-82
2023/06/02 08:26:55;;;;;;;9.07;7.80;;;;;;;20.98;55.10;156757.81;5009203;28;20445;-82
2023/06/02 08:29:22;;;;;;;8.80;7.90;;;;;;;20.99;53.54;156761.75;5009361;28;20491;-82
2023/06/02 08:31:49;;;;;;;8.93;6.57;;;;;;;20.59;54.69;156657.38;5033465;28;20444;-83
2023/06/02 08:34:20;;;;;;;8.60;6.70;;;;;;;20.56;55.25;156650.84;4991880;28;20983;-82
2023/06/02 08:36:49;;;;;;;8.00;7.07;;;;;;;20.31;56.05;156585.63;4989928;28;20481;-82
2023/06/02 08:39:17;;;;;;;9.47;6.70;;;;;;;20.64;55.43;156671.72;5004528;28;20480;-82
2023/06/02 08:41:47;;;;;;;8.73;7.83;;;;;;;20.39;54.94;156605.16;4989451;28;20484;-82
2023/06/02 08:44:13;;;;;;;8.23;6.40;;;;;;;20.32;56.23;156588.25;4988006;28;20426;-83
2023/06/02 08:46:40;;;;;;;7.77;6.97;;;;;;;20.09;56.91;156528.22;4993024;28;20452;-82
2023/06/02 08:49:07;;;;;;;10.30;7.50;;;;;;;20.08;56.56;156525.59;5009161;28;20815;-83
2023/06/02 08:51:37;;;;;;;8.37;6.70;;;;;;;19.90;57.18;156479.97;4995156;28;20516;-82
2023/06/02 08:54:06;;;;;;;9.93;7.27;;;;;;;19.76;57.15;156443.44;4989651;28;20422;-83
2023/06/02 08:56:32;;;;;;;13.40;7.67;;;;;;;20.07;57.34;156522.94;5003980;28;20442;-82
2023/06/02 08:58:59;;;;;;;7.57;6.60;;;;;;;20.60;55.81;156659.94;4988209;28;20466;-83
2023/06/02 09:01:25;;;;;;;7.63;6.90;;;;;;;20.96;54.75;156752.63;4987458;28;20477;-82
2023/06/02 09:03:52;;;;;;;8.07;6.60;;;;;;;21.14;53.75;156800.94;4987639;28;20442;-82
2023/06/02 09:06:22;;;;;;;8.77;7.07;;;;;;;20.88;52.61;156733.06;4989180;28;20880;-83
2023/06/02 09:08:57;;;;;;;7.80;7.10;;;;;;;20.14;56.06;156541.25;4972311;28;20457;-82
2023/06/02 09:11:25;;;;;;;10.63;7.63;;;;;;;19.94;56.56;156489.06;4969387;28;20446;-82
2023/06/02 09:13:52;;;;;;;9.13;7.67;;;;;;;20.04;56.64;156515.19;4984608;28;20435;-83
2023/06/02 09:16:20;;;;;;;9.97;7.23;;;;;;;20.29;56.85;156580.41;4991793;28;20476;-83
2023/06/02 09:18:58;;;;;;;10.47;7.80;;;;;;;20.52;55.64;156640.41;4971636;28;20442;-82
2023/06/02 09:21:27;;;;;;;7.90;6.80;;;;;;;20.31;56.32;156584.31;4987169;28;20477;-82
2023/06/02 09:23:55;;;;;;;9.30;7.40;;;;;;;20.11;56.49;156532.09;4989358;28;20430;-82
2023/06/02 09:26:23;;;;;;;7.77;6.73;;;;;;;20.03;57.46;156513.88;4983936;28;20454;-82
2023/06/02 09:29:01;;;;;;;8.97;7.23;;;;;;;20.19;56.81;156554.28;4979403;28;20449;-82
2023/06/02 09:31:28;;;;;;;8.10;7.23;;;;;;;20.33;56.73;156589.56;5020338;28;20496;-82
2023/06/02 09:33:58;;;;;;;8.93;7.43;;;;;;;20.40;57.01;156607.78;4990598;28;20433;-82
2023/06/02 09:36:29;;;;;;;7.83;6.93;;;;;;;20.45;57.25;156620.84;5023306;28;21066;-82
2023/06/02 09:38:58;;;;;;;9.37;7.90;;;;;;;20.83;55.62;156718.69;5007243;28;20429;-82
2023/06/02 09:41:28;;;;;;;8.00;7.20;;;;;;;20.43;57.25;156615.63;5003466;28;20477;-82
2023/06/02 09:43:56;;;;;;;9.23;7.03;;;;;;;20.15;57.98;156543.81;5003776;28;20877;-82
2023/06/02 09:46:23;;;;;;;7.67;6.77;;;;;;;20.32;58.12;156588.25;5003410;28;20452;-82
2023/06/02 09:48:54;;;;;;;8.50;6.83;;;;;;;20.71;55.73;156687.34;4987610;28;20438;-82
2023/06/02 09:51:22;;;;;;;8.73;6.47;;;;;;;20.55;55.09;156648.22;4987202;28;20901;-82
2023/06/02 09:53:49;;;;;;;8.43;7.57;;;;;;;20.75;55.18;156699.13;5003491;28;20450;-83
2023/06/02 09:56:19;;;;;;;9.40;7.70;;;;;;;21.07;55.48;156781.38;4986885;28;20898;-82
2023/06/02 09:58:46;;;;;;;8.73;7.80;;;;;;;20.76;55.73;156700.44;4986701;28;20504;-83
2023/06/02 10:01:12;;;;;;;8.67;7.27;;;;;;;20.16;56.46;156545.13;5003366;28;20537;-83
2023/06/02 10:03:42;;;;;;;8.83;7.70;;;;;;;19.77;57.99;156446.06;4990504;28;20492;-82
2023/06/02 10:06:14;;;;;;;10.70;8.20;;;;;;;19.65;57.91;156413.44;4990918;28;20447;-83
2023/06/02 10:08:48;;;;;;;9.63;7.20;;;;;;;19.58;58.06;156395.19;4991295;28;20484;-82
2023/06/02 10:11:22;;;;;;;8.30;6.90;;;;;;;19.87;57.51;156470.81;5006665;28;20485;-83
2023/06/02 10:14:02;;;;;;;10.47;7.10;;;;;;;19.84;59.12;156464.31;4992442;28;20828;-82
2023/06/02 10:16:40;;;;;;;8.17;7.27;;;;;;;20.08;58.78;156525.59;5003377;28;20923;-83
2023/06/02 10:19:43;;;;;;;8.17;7.07;;;;;;;20.55;55.89;156646.91;5010763;28;20424;-83
2023/06/02 10:22:22;;;;;;;7.63;6.20;;;;;;;20.24;56.61;156566.06;5026353;28;20820;-83
2023/06/02 10:24:57;;;;;;;9.97;7.00;;;;;;;19.89;57.99;156477.34;5026781;28;20494;-82
2023/06/02 10:27:28;;;;;;;7.23;6.53;;;;;;;19.85;56.88;156466.94;5026432;28;20491;-83
2023/06/02 10:29:55;;;;;;;8.10;7.20;;;;;;;20.24;58.46;156567.38;5026623;28;20531;-83
2023/06/02 10:32:23;;;;;;;8.30;7.17;;;;;;;20.49;57.58;156632.56;4992872;28;20457;-83
2023/06/02 10:34:50;;;;;;;9.43;7.80;;;;;;;20.62;55.87;156665.22;5026569;28;20444;-83
2023/06/02 10:37:17;;;;;;;11.13;6.57;;;;;;;20.33;56.66;156590.81;5009815;28;20471;-82
2023/06/02 10:39:50;;;;;;;7.90;6.90;;;;;;;20.36;57.04;156597.38;5011687;28;20444;-83
2023/06/02 10:42:17;;;;;;;7.63;6.10;;;;;;;20.42;55.68;156613.00;5026266;28;20476;-82
2023/06/02 10:44:47;;;;;;;7.60;6.80;;;;;;;20.70;54.83;156686.09;5011401;28;20445;-83
2023/06/02 10:47:32;;;;;;;7.57;6.50;;;;;;;20.65;54.73;156673.03;5009366;28;20457;-83
2023/06/02 10:50:00;;;;;;;10.83;6.33;;;;;;;20.60;55.81;156659.94;5002965;28;20462;-82
2023/06/02 10:52:29;;;;;;;8.00;6.73;;;;;;;20.51;55.06;156636.50;5008104;28;20433;-82
2023/06/02 10:55:30;;;;;;;7.73;6.17;;;;;;;20.78;55.14;156705.66;5011252;28;20866;-82
2023/06/02 10:57:58;;;;;;;7.57;5.70;;;;;;;20.87;54.61;156729.09;5026063;28;20793;-82
2023/06/02 11:00:49;;;;;;;7.50;5.90;;;;;;;20.76;52.19;156700.44;5009808;28;20886;-82
2023/06/02 11:03:32;;;;;;;7.40;5.63;;;;;;;20.60;54.28;156661.28;5009365;28;20433;-82
2023/06/02 11:06:19;;;;;;;7.73;6.23;;;;;;;20.78;53.99;156705.66;5025888;28;20437;-82
2023/06/02 11:08:46;;;;;;;7.53;6.67;;;;;;;20.83;52.96;156720.00;5006228;28;20536;-82
2023/06/02 11:11:12;;;;;;;7.17;6.30;;;;;;;20.76;54.42;156700.44;5004718;28;20503;-82
2023/06/02 11:13:57;;;;;;;8.53;6.47;;;;;;;20.74;53.53;156696.50;4991122;28;20444;-82
2023/06/02 11:16:27;;;;;;;7.67;6.30;;;;;;;20.86;52.64;156727.84;5005788;28;20855;-82
2023/06/02 11:18:54;;;;;;;8.90;5.63;;;;;;;20.75;53.43;156699.13;4989597;28;20532;-82
2023/06/02 11:21:22;;;;;;;7.77;7.00;;;;;;;20.56;54.05;156649.53;5022296;28;20521;-82
2023/06/02 11:23:48;;;;;;;6.73;6.03;;;;;;;20.55;54.54;156646.91;5021423;28;20984;-82
2023/06/02 11:26:17;;;;;;;7.83;6.90;;;;;;;20.72;53.70;156689.97;4991137;28;20467;-82
2023/06/02 11:28:43;;;;;;;7.17;6.23;;;;;;;20.85;52.69;156723.91;4991085;28;20452;-82